Terminal Aerodrome Forecast
Issued by NWS Sioux Falls, SD

Home | Current Version | Previous Version | Text Only | Print | Product List | Glossary Off
Versions: 1 2 3 4 5 6 7 8 9 10 11 12 13 14 15

000
FTUS43 KFSD 261120
TAFHON
TAF
KHON 261120Z 2612/2712 14007KT P6SM SCT100 SCT200
     FM261400 14014KT P6SM SCT120
     FM270200 13007KT P6SM BKN150=

USA.gov is the U.S. government's official web portal to all federal, state and local government web resources and services.